Time;durP1;ratioP1;P1;durP2;ratioP2;P2;SDS_P1;SDS_P2;PMS_P1;PMS_P2;Temp;Humidity;BMP_temperature;BMP_pressure;BME280_temperature;BME280_humidity;BME280_pressure;Samples;Min_cycle;Max_cycle;Signal;HPM_P1;HPM_P2
2024/01/12 00:01:37;;;;;;;27.45;6.53;;;;;;;;;;5028630;28;20450;-78
2024/01/12 00:04:03;;;;;;;22.20;5.68;;;;;;;;;;5031500;28;20116;-77
2024/01/12 00:06:29;;;;;;;30.83;7.10;;;;;;;;;;5029413;28;20124;-77
2024/01/12 00:08:55;;;;;;;38.35;6.95;;;;;;;;;;5030065;28;20033;-77
2024/01/12 00:11:21;;;;;;;25.65;6.50;;;;;;;;;;5027564;28;20267;-77
2024/01/12 00:13:49;;;;;;;38.00;7.78;;;;;;;;;;5032087;28;20040;-77
2024/01/12 00:16:15;;;;;;;31.55;7.15;;;;;;;;;;5028824;28;20033;-77
2024/01/12 00:18:41;;;;;;;22.33;5.63;;;;;;;;;;5014394;28;20128;-77
2024/01/12 00:21:07;;;;;;;42.55;7.95;;;;;;;;;;5028609;28;20044;-77
2024/01/12 00:23:34;;;;;;;29.50;6.15;;;;;;;;;;5031818;28;20038;-77
2024/01/12 00:26:00;;;;;;;25.08;6.03;;;;;;;;;;5028707;28;20112;-78
2024/01/12 00:28:27;;;;;;;24.88;6.38;;;;;;;;;;5031035;28;20033;-78
2024/01/12 00:30:56;;;;;;;23.05;6.25;;;;;;;;;;5029331;28;20074;-77
2024/01/12 00:33:24;;;;;;;24.65;6.70;;;;;;;;;;5063718;28;20025;-77
2024/01/12 00:35:51;;;;;;;28.02;7.05;;;;;;;;;;5031394;28;20038;-77
2024/01/12 00:38:17;;;;;;;36.10;8.07;;;;;;;;;;5027301;28;20034;-77
2024/01/12 00:40:43;;;;;;;27.92;6.03;;;;;;;;;;5029486;28;20111;-77
2024/01/12 00:43:09;;;;;;;35.65;6.63;;;;;;;;;;5031179;28;20105;-77
2024/01/12 00:45:35;;;;;;;29.08;6.07;;;;;;;;;;5029655;28;20025;-77
2024/01/12 00:48:01;;;;;;;20.60;6.40;;;;;;;;;;5030426;28;20127;-77
2024/01/12 00:50:27;;;;;;;27.38;6.72;;;;;;;;;;5031642;28;20021;-78
2024/01/12 00:52:54;;;;;;;29.88;6.65;;;;;;;;;;5030995;28;20091;-78
2024/01/12 00:55:20;;;;;;;26.70;6.63;;;;;;;;;;5012992;28;20520;-77
2024/01/12 00:57:46;;;;;;;26.10;6.55;;;;;;;;;;5028097;28;20034;-76
2024/01/12 01:00:13;;;;;;;34.22;6.90;;;;;;;;;;5028953;28;20287;-77
2024/01/12 01:02:39;;;;;;;37.03;8.75;;;;;;;;;;5035146;28;20365;-77
2024/01/12 01:05:05;;;;;;;31.77;7.00;;;;;;;;;;5030841;28;20113;-77
2024/01/12 01:07:31;;;;;;;30.63;7.50;;;;;;;;;;5029915;28;20430;-77
2024/01/12 01:09:57;;;;;;;22.63;6.05;;;;;;;;;;5029680;28;20044;-78
2024/01/12 01:12:24;;;;;;;30.92;7.45;;;;;;;;;;5029055;28;20036;-77
2024/01/12 01:14:50;;;;;;;31.52;8.23;;;;;;;;;;5029297;28;20499;-76
2024/01/12 01:17:16;;;;;;;27.05;6.25;;;;;;;;;;5030221;28;20033;-77
2024/01/12 01:19:42;;;;;;;30.92;6.55;;;;;;;;;;5029552;28;20040;-77
2024/01/12 01:22:08;;;;;;;36.95;6.78;;;;;;;;;;5029242;28;20033;-76
2024/01/12 01:24:34;;;;;;;27.55;7.38;;;;;;;;;;5029634;28;20102;-78
2024/01/12 01:27:00;;;;;;;31.45;7.20;;;;;;;;;;5027661;28;20112;-76
2024/01/12 01:29:26;;;;;;;23.73;6.25;;;;;;;;;;5030384;28;20048;-76
2024/01/12 01:31:52;;;;;;;25.77;6.60;;;;;;;;;;5031842;28;20021;-77
2024/01/12 01:34:18;;;;;;;29.13;6.80;;;;;;;;;;5029124;28;20028;-77
2024/01/12 01:36:45;;;;;;;29.30;6.97;;;;;;;;;;5030049;28;20037;-77
2024/01/12 01:39:11;;;;;;;28.25;6.88;;;;;;;;;;5029775;28;20045;-77
2024/01/12 01:41:37;;;;;;;30.73;8.13;;;;;;;;;;5030798;28;20030;-77
2024/01/12 01:44:03;;;;;;;20.50;6.80;;;;;;;;;;5034129;28;20025;-77
2024/01/12 01:46:29;;;;;;;26.05;8.07;;;;;;;;;;5030465;28;20048;-76
2024/01/12 01:48:56;;;;;;;27.95;6.85;;;;;;;;;;5034557;28;20025;-78
2024/01/12 01:51:22;;;;;;;25.63;5.70;;;;;;;;;;5030630;28;20025;-77
2024/01/12 01:53:48;;;;;;;24.40;6.55;;;;;;;;;;5031894;28;20029;-77
2024/01/12 01:56:15;;;;;;;30.02;6.47;;;;;;;;;;5028971;28;20053;-77
2024/01/12 01:58:42;;;;;;;22.35;5.38;;;;;;;;;;5030816;28;20052;-77
2024/01/12 02:01:08;;;;;;;27.85;5.00;;;;;;;;;;5031100;28;20025;-76
2024/01/12 02:03:36;;;;;;;27.17;4.32;;;;;;;;;;5030430;28;20030;-76
2024/01/12 02:06:02;;;;;;;19.38;4.40;;;;;;;;;;5028156;28;20422;-77
2024/01/12 02:08:29;;;;;;;20.02;4.10;;;;;;;;;;5029839;28;20032;-77
2024/01/12 02:10:55;;;;;;;22.90;4.80;;;;;;;;;;5027294;28;20021;-77
2024/01/12 02:13:22;;;;;;;21.90;4.13;;;;;;;;;;5027155;28;20041;-76
2024/01/12 02:15:48;;;;;;;24.23;4.80;;;;;;;;;;5026798;28;20044;-77
2024/01/12 02:18:15;;;;;;;21.20;3.97;;;;;;;;;;5029375;28;20436;-77
2024/01/12 02:20:42;;;;;;;26.42;4.80;;;;;;;;;;5029369;28;20056;-77
2024/01/12 02:23:08;;;;;;;25.30;4.95;;;;;;;;;;5041976;28;20255;-77
2024/01/12 02:25:34;;;;;;;18.08;5.63;;;;;;;;;;5026473;28;20105;-77
2024/01/12 02:28:01;;;;;;;16.10;4.65;;;;;;;;;;5026600;28;20029;-77
2024/01/12 02:30:27;;;;;;;17.83;3.85;;;;;;;;;;5029174;28;20151;-77
2024/01/12 02:32:53;;;;;;;25.85;4.25;;;;;;;;;;5028967;28;20033;-77
2024/01/12 02:35:19;;;;;;;22.95;4.03;;;;;;;;;;5026748;28;20029;-76
2024/01/12 02:37:45;;;;;;;19.98;5.35;;;;;;;;;;5028066;28;20021;-76
2024/01/12 02:40:11;;;;;;;22.33;3.75;;;;;;;;;;5024190;28;20034;-76
2024/01/12 02:42:38;;;;;;;21.90;4.28;;;;;;;;;;5029124;28;20036;-76
2024/01/12 02:45:04;;;;;;;24.88;4.93;;;;;;;;;;5026201;28;20041;-76
2024/01/12 02:47:30;;;;;;;22.52;5.15;;;;;;;;;;5027091;28;20049;-76
2024/01/12 02:49:56;;;;;;;17.92;3.80;;;;;;;;;;5024597;28;20167;-77
2024/01/12 02:52:23;;;;;;;21.15;4.35;;;;;;;;;;5027004;28;20029;-77
2024/01/12 02:54:49;;;;;;;14.35;3.65;;;;;;;;;;5026533;28;20071;-76
2024/01/12 02:57:15;;;;;;;22.08;4.75;;;;;;;;;;5027757;28;20060;-77
2024/01/12 02:59:41;;;;;;;23.35;5.22;;;;;;;;;;5028362;28;20041;-76
2024/01/12 03:02:07;;;;;;;20.50;4.47;;;;;;;;;;5027225;28;20341;-77
2024/01/12 03:04:34;;;;;;;16.60;4.35;;;;;;;;;;5028950;28;20017;-76
2024/01/12 03:07:00;;;;;;;20.10;4.50;;;;;;;;;;5025498;28;20112;-77
2024/01/12 03:09:26;;;;;;;16.33;3.83;;;;;;;;;;5026207;28;20033;-76
2024/01/12 03:11:52;;;;;;;26.90;4.65;;;;;;;;;;5029131;28;20061;-76
2024/01/12 03:14:18;;;;;;;23.50;5.22;;;;;;;;;;5029464;28;20095;-77
2024/01/12 03:16:44;;;;;;;22.90;5.28;;;;;;;;;;5028887;28;20437;-77
2024/01/12 03:19:10;;;;;;;18.33;4.20;;;;;;;;;;5026427;28;20444;-76
2024/01/12 03:21:37;;;;;;;18.55;4.63;;;;;;;;;;5024005;28;20037;-77
2024/01/12 03:24:03;;;;;;;24.05;4.05;;;;;;;;;;5024765;28;20026;-77
2024/01/12 03:26:29;;;;;;;22.60;5.57;;;;;;;;;;5022665;28;20029;-76
2024/01/12 03:28:55;;;;;;;13.43;3.88;;;;;;;;;;5028711;28;20029;-77
2024/01/12 03:31:21;;;;;;;24.42;4.35;;;;;;;;;;5029492;28;20034;-77
2024/01/12 03:33:47;;;;;;;26.63;5.22;;;;;;;;;;5027785;28;20509;-76
2024/01/12 03:36:14;;;;;;;18.33;3.97;;;;;;;;;;5026903;28;20502;-76
2024/01/12 03:38:40;;;;;;;20.70;5.03;;;;;;;;;;5026273;28;20036;-78
2024/01/12 03:41:06;;;;;;;17.50;4.63;;;;;;;;;;5040416;28;20057;-79
2024/01/12 03:43:32;;;;;;;17.50;4.35;;;;;;;;;;5028662;28;20419;-77
2024/01/12 03:46:00;;;;;;;19.17;4.93;;;;;;;;;;5026915;28;20068;-77
2024/01/12 03:48:26;;;;;;;27.55;4.93;;;;;;;;;;5028854;28;20088;-77
2024/01/12 03:50:55;;;;;;;18.30;4.78;;;;;;;;;;5026196;28;20065;-76
2024/01/12 03:53:21;;;;;;;22.02;4.63;;;;;;;;;;5029739;28;20091;-77
2024/01/12 03:55:47;;;;;;;20.02;4.65;;;;;;;;;;5029300;28;20040;-76
2024/01/12 03:58:13;;;;;;;19.27;5.57;;;;;;;;;;5023167;28;20553;-77
2024/01/12 04:00:39;;;;;;;18.38;4.07;;;;;;;;;;5026260;28;20123;-77
2024/01/12 04:03:06;;;;;;;17.40;4.38;;;;;;;;;;5027993;28;20475;-76
2024/01/12 04:05:32;;;;;;;16.45;4.28;;;;;;;;;;5026849;28;20124;-77
2024/01/12 04:07:58;;;;;;;22.35;5.85;;;;;;;;;;5026697;28;20395;-77
2024/01/12 04:10:25;;;;;;;19.45;5.85;;;;;;;;;;5026329;28;20491;-77
2024/01/12 04:12:51;;;;;;;16.42;4.30;;;;;;;;;;5024165;28;20048;-78
2024/01/12 04:15:17;;;;;;;20.50;4.32;;;;;;;;;;5026272;28;20482;-77
2024/01/12 04:17:43;;;;;;;14.75;5.13;;;;;;;;;;5028819;28;20053;-77
2024/01/12 04:20:10;;;;;;;26.88;5.38;;;;;;;;;;5023827;28;20111;-77
2024/01/12 04:22:36;;;;;;;22.50;4.80;;;;;;;;;;5023883;28;20593;-77
2024/01/12 04:25:02;;;;;;;20.60;4.65;;;;;;;;;;5025930;28;20083;-77
2024/01/12 04:27:29;;;;;;;18.10;5.05;;;;;;;;;;5026936;28;20034;-79
2024/01/12 04:29:55;;;;;;;17.35;5.43;;;;;;;;;;5028559;28;20029;-79
2024/01/12 04:32:21;;;;;;;23.55;5.75;;;;;;;;;;5027938;28;20032;-77
2024/01/12 04:34:47;;;;;;;28.17;5.57;;;;;;;;;;5025126;28;20111;-76
2024/01/12 04:37:14;;;;;;;20.35;5.85;;;;;;;;;;5028451;28;20033;-77
2024/01/12 04:39:43;;;;;;;11.77;4.60;;;;;;;;;;5025270;28;20119;-76
2024/01/12 04:42:09;;;;;;;23.83;5.13;;;;;;;;;;5025757;28;20065;-77
2024/01/12 04:44:35;;;;;;;21.08;4.80;;;;;;;;;;5026631;28;20044;-76
2024/01/12 04:47:01;;;;;;;15.52;4.93;;;;;;;;;;5027127;28;20046;-76
2024/01/12 04:49:27;;;;;;;13.35;4.88;;;;;;;;;;5030651;28;20037;-76
2024/01/12 04:51:54;;;;;;;19.35;5.07;;;;;;;;;;5029991;28;20030;-77
2024/01/12 04:54:20;;;;;;;19.08;5.05;;;;;;;;;;5030691;28;20132;-77
2024/01/12 04:56:46;;;;;;;13.70;4.45;;;;;;;;;;5030520;28;20030;-76
2024/01/12 04:59:12;;;;;;;22.92;6.07;;;;;;;;;;5033212;28;20026;-76
2024/01/12 05:01:38;;;;;;;17.10;6.18;;;;;;;;;;5060074;28;20041;-75
2024/01/12 05:04:05;;;;;;;21.55;6.90;;;;;;;;;;5028765;28;20026;-76
2024/01/12 05:06:31;;;;;;;25.40;5.88;;;;;;;;;;5026359;28;20033;-78
2024/01/12 05:08:57;;;;;;;19.90;6.03;;;;;;;;;;5029840;28;20048;-76
2024/01/12 05:11:25;;;;;;;19.40;5.45;;;;;;;;;;5029373;28;20510;-76
2024/01/12 05:13:52;;;;;;;17.05;5.75;;;;;;;;;;5029186;28;20325;-77
2024/01/12 05:16:18;;;;;;;17.90;5.65;;;;;;;;;;5030311;28;20116;-77
2024/01/12 05:18:44;;;;;;;19.63;6.55;;;;;;;;;;5025755;28;20041;-77
2024/01/12 05:21:10;;;;;;;26.20;6.00;;;;;;;;;;5057647;28;20037;-77
2024/01/12 05:23:37;;;;;;;21.55;5.43;;;;;;;;;;5028854;28;20037;-76
2024/01/12 05:26:04;;;;;;;21.50;5.85;;;;;;;;;;5029015;28;20044;-76
2024/01/12 05:28:30;;;;;;;17.65;4.88;;;;;;;;;;5029250;28;20049;-76
2024/01/12 05:30:56;;;;;;;17.85;5.53;;;;;;;;;;5028723;28;20384;-76
2024/01/12 05:33:22;;;;;;;22.55;5.43;;;;;;;;;;5028837;28;20418;-76
2024/01/12 05:35:48;;;;;;;24.13;7.10;;;;;;;;;;5026258;28;20103;-76
2024/01/12 05:38:14;;;;;;;13.77;5.35;;;;;;;;;;5030554;28;20052;-76
2024/01/12 05:40:40;;;;;;;26.75;5.75;;;;;;;;;;5027925;28;20307;-76
2024/01/12 05:43:07;;;;;;;22.52;6.55;;;;;;;;;;5027180;28;20139;-77
2024/01/12 05:45:33;;;;;;;22.88;6.43;;;;;;;;;;5029961;28;20458;-77
2024/01/12 05:47:59;;;;;;;17.00;4.75;;;;;;;;;;5029989;28;20410;-76
2024/01/12 05:50:25;;;;;;;23.65;5.32;;;;;;;;;;5026014;28;20563;-77
2024/01/12 05:52:51;;;;;;;21.95;6.35;;;;;;;;;;5027495;28;20041;-77
2024/01/12 05:55:17;;;;;;;21.85;5.72;;;;;;;;;;5028362;28;20025;-76
2024/01/12 05:57:44;;;;;;;26.40;5.30;;;;;;;;;;5026967;28;20033;-76
2024/01/12 06:00:10;;;;;;;15.38;4.40;;;;;;;;;;5029383;28;20128;-76
2024/01/12 06:02:36;;;;;;;15.50;5.65;;;;;;;;;;5027902;28;20026;-77
2024/01/12 06:05:02;;;;;;;18.15;5.18;;;;;;;;;;5027540;28;20044;-76
2024/01/12 06:07:29;;;;;;;15.48;4.93;;;;;;;;;;5026522;28;20041;-77
2024/01/12 06:09:55;;;;;;;22.98;6.95;;;;;;;;;;5028505;28;20032;-77
2024/01/12 06:12:21;;;;;;;22.60;5.00;;;;;;;;;;5028881;28;20360;-76
2024/01/12 06:14:47;;;;;;;24.83;5.63;;;;;;;;;;5023427;28;20052;-76
2024/01/12 06:17:13;;;;;;;24.63;7.00;;;;;;;;;;5028013;28;20124;-76
2024/01/12 06:19:39;;;;;;;23.23;5.75;;;;;;;;;;5027011;28;20108;-76
2024/01/12 06:22:05;;;;;;;16.13;5.38;;;;;;;;;;5025600;28;20049;-76
2024/01/12 06:24:32;;;;;;;22.08;6.43;;;;;;;;;;5057037;28;20166;-77
2024/01/12 06:26:58;;;;;;;20.02;6.60;;;;;;;;;;5025503;28;20407;-76
2024/01/12 06:29:24;;;;;;;30.80;5.75;;;;;;;;;;5024835;28;20113;-76
2024/01/12 06:31:50;;;;;;;17.27;6.95;;;;;;;;;;5027289;28;20036;-76
2024/01/12 06:34:16;;;;;;;19.20;6.30;;;;;;;;;;5028292;28;20419;-76
2024/01/12 06:36:43;;;;;;;29.40;7.38;;;;;;;;;;5029919;28;20029;-78
2024/01/12 06:39:09;;;;;;;19.00;5.35;;;;;;;;;;5026515;28;20042;-77
2024/01/12 06:41:42;;;;;;;20.83;6.47;;;;;;;;;;5027160;28;20070;-76
2024/01/12 06:44:09;;;;;;;20.27;5.90;;;;;;;;;;5028448;28;20028;-76
2024/01/12 06:46:35;;;;;;;29.90;6.78;;;;;;;;;;5026088;28;20038;-77
2024/01/12 06:49:01;;;;;;;21.80;6.82;;;;;;;;;;5027843;28;20051;-76
2024/01/12 06:51:27;;;;;;;23.48;8.70;;;;;;;;;;5026148;28;20080;-77
2024/01/12 06:53:53;;;;;;;24.92;7.85;;;;;;;;;;5028106;28;20034;-77
2024/01/12 06:56:20;;;;;;;19.27;6.90;;;;;;;;;;5025854;28;20439;-77
2024/01/12 06:58:46;;;;;;;17.33;6.70;;;;;;;;;;5029332;28;20033;-76
2024/01/12 07:01:12;;;;;;;18.48;7.18;;;;;;;;;;5028796;28;20097;-76
2024/01/12 07:03:38;;;;;;;24.27;6.80;;;;;;;;;;5027783;28;20041;-76
2024/01/12 07:06:04;;;;;;;20.60;7.85;;;;;;;;;;5026709;28;20137;-77
2024/01/12 07:08:31;;;;;;;25.02;7.93;;;;;;;;;;5021550;28;20060;-77
2024/01/12 07:10:57;;;;;;;29.08;8.85;;;;;;;;;;5024597;28;20102;-77
2024/01/12 07:13:23;;;;;;;26.45;7.38;;;;;;;;;;5021813;28;20084;-77
2024/01/12 07:15:49;;;;;;;30.08;7.82;;;;;;;;;;5026006;28;20021;-76
2024/01/12 07:18:16;;;;;;;22.52;7.40;;;;;;;;;;5041248;28;20037;-76
2024/01/12 07:20:42;;;;;;;17.15;7.00;;;;;;;;;;5028470;28;20088;-77
2024/01/12 07:23:08;;;;;;;20.42;7.28;;;;;;;;;;5028973;28;20037;-77
2024/01/12 07:25:36;;;;;;;21.40;7.75;;;;;;;;;;5027952;28;20035;-77
2024/01/12 07:28:03;;;;;;;23.10;7.88;;;;;;;;;;5026152;28;20056;-75
2024/01/12 07:30:29;;;;;;;17.40;8.38;;;;;;;;;;5021892;28;20096;-76
2024/01/12 07:32:55;;;;;;;27.77;10.15;;;;;;;;;;5015676;28;20579;-76
2024/01/12 07:35:21;;;;;;;25.50;8.57;;;;;;;;;;5028531;28;20033;-77
2024/01/12 07:37:48;;;;;;;19.70;8.63;;;;;;;;;;5019359;28;20043;-76
2024/01/12 07:40:14;;;;;;;19.33;7.65;;;;;;;;;;5022559;28;20099;-76
2024/01/12 07:42:40;;;;;;;19.27;7.65;;;;;;;;;;5028339;28;20104;-76
2024/01/12 07:45:06;;;;;;;23.98;8.13;;;;;;;;;;5027159;28;20026;-76
2024/01/12 07:47:32;;;;;;;22.58;8.35;;;;;;;;;;5019933;28;20049;-76
2024/01/12 07:49:58;;;;;;;18.20;7.65;;;;;;;;;;5037831;28;20042;-76
2024/01/12 07:52:25;;;;;;;36.35;8.23;;;;;;;;;;5022654;28;20025;-76
2024/01/12 07:54:51;;;;;;;26.40;9.20;;;;;;;;;;5026438;28;20083;-77
2024/01/12 07:57:17;;;;;;;30.25;9.77;;;;;;;;;;5026026;28;20088;-75
2024/01/12 07:59:43;;;;;;;27.75;8.60;;;;;;;;;;5026991;28;20099;-77
2024/01/12 08:02:09;;;;;;;25.27;9.88;;;;;;;;;;5026589;28;20029;-76
2024/01/12 08:04:37;;;;;;;28.35;10.07;;;;;;;;;;5024347;28;20037;-77
2024/01/12 08:07:06;;;;;;;29.45;10.32;;;;;;;;;;5025584;28;20090;-77
2024/01/12 08:09:32;;;;;;;34.15;10.38;;;;;;;;;;5010534;28;20029;-78
2024/01/12 08:11:58;;;;;;;22.88;9.50;;;;;;;;;;5060572;28;20056;-76
2024/01/12 08:14:24;;;;;;;21.45;10.80;;;;;;;;;;5027475;28;20042;-77
2024/01/12 08:16:51;;;;;;;28.35;10.45;;;;;;;;;;5024385;28;20072;-76
2024/01/12 08:19:17;;;;;;;20.08;10.02;;;;;;;;;;5027697;28;20138;-76
2024/01/12 08:21:43;;;;;;;27.00;10.23;;;;;;;;;;5061231;28;20054;-76
2024/01/12 08:24:09;;;;;;;29.25;10.15;;;;;;;;;;5029398;28;20493;-76
2024/01/12 08:26:35;;;;;;;24.38;9.55;;;;;;;;;;5030016;28;20034;-77
2024/01/12 08:29:01;;;;;;;26.77;10.75;;;;;;;;;;5027772;28;20099;-76
2024/01/12 08:31:32;;;;;;;19.92;10.10;;;;;;;;;;5029697;28;20183;-76
2024/01/12 08:33:58;;;;;;;25.85;10.00;;;;;;;;;;5028831;28;20555;-76
2024/01/12 08:36:24;;;;;;;23.00;10.40;;;;;;;;;;5027104;28;20076;-76
2024/01/12 08:38:50;;;;;;;21.77;9.60;;;;;;;;;;5028502;28;20037;-76
2024/01/12 08:41:17;;;;;;;24.33;11.30;;;;;;;;;;5028011;28;20091;-76
2024/01/12 08:43:43;;;;;;;24.80;10.57;;;;;;;;;;5031152;28;20031;-76
2024/01/12 08:46:09;;;;;;;24.48;9.88;;;;;;;;;;5029350;28;20033;-78
2024/01/12 08:48:35;;;;;;;22.60;9.98;;;;;;;;;;5029428;28;20120;-77
2024/01/12 08:51:02;;;;;;;25.15;10.60;;;;;;;;;;5030470;28;20037;-77
2024/01/12 08:53:28;;;;;;;32.70;12.15;;;;;;;;;;5027674;28;20367;-77
2024/01/12 08:55:55;;;;;;;24.52;11.48;;;;;;;;;;5030345;28;20037;-77
2024/01/12 08:58:21;;;;;;;31.45;13.05;;;;;;;;;;5029214;28;20033;-76
2024/01/12 09:00:48;;;;;;;23.00;11.57;;;;;;;;;;5027340;28;20032;-77
2024/01/12 09:03:14;;;;;;;22.48;12.00;;;;;;;;;;5025273;28;20391;-77
2024/01/12 09:05:40;;;;;;;27.42;11.55;;;;;;;;;;5053707;28;20034;-76
2024/01/12 09:08:06;;;;;;;33.95;13.13;;;;;;;;;;5027133;28;20021;-77
2024/01/12 09:10:32;;;;;;;34.08;13.05;;;;;;;;;;5021891;28;20044;-76
2024/01/12 09:12:59;;;;;;;35.83;12.32;;;;;;;;;;5016884;28;20086;-78
2024/01/12 09:15:25;;;;;;;28.17;10.98;;;;;;;;;;5018775;28;20049;-75
2024/01/12 09:17:51;;;;;;;27.35;10.27;;;;;;;;;;5017038;28;20502;-77
2024/01/12 09:20:18;;;;;;;25.20;10.68;;;;;;;;;;5025796;28;20042;-76
2024/01/12 09:22:45;;;;;;;42.10;11.57;;;;;;;;;;5025192;28;20065;-76
2024/01/12 09:25:11;;;;;;;26.20;10.05;;;;;;;;;;5030119;28;20030;-77
2024/01/12 09:27:37;;;;;;;30.70;10.68;;;;;;;;;;5022988;28;20036;-75
2024/01/12 09:30:04;;;;;;;26.63;9.32;;;;;;;;;;5025904;28;20403;-76
2024/01/12 09:32:30;;;;;;;26.98;9.85;;;;;;;;;;5028644;28;20087;-77
2024/01/12 09:34:56;;;;;;;30.15;11.98;;;;;;;;;;5024171;28;20390;-76
2024/01/12 09:37:25;;;;;;;30.65;10.82;;;;;;;;;;5016212;28;20502;-77
2024/01/12 09:39:51;;;;;;;27.30;9.50;;;;;;;;;;5021661;28;20028;-75
2024/01/12 09:42:18;;;;;;;30.35;8.40;;;;;;;;;;5010366;28;20399;-77
2024/01/12 09:44:45;;;;;;;35.80;8.40;;;;;;;;;;5028929;28;20026;-76
2024/01/12 09:47:12;;;;;;;31.55;7.10;;;;;;;;;;5029663;28;20484;-78
2024/01/12 09:49:38;;;;;;;23.98;7.03;;;;;;;;;;5018829;28;20096;-75
2024/01/12 09:52:07;;;;;;;30.40;8.40;;;;;;;;;;5057899;28;20029;-76
2024/01/12 09:54:37;;;;;;;22.05;6.00;;;;;;;;;;5012101;28;20072;-76
2024/01/12 09:57:08;;;;;;;26.23;6.63;;;;;;;;;;5029527;28;20305;-75
2024/01/12 09:59:36;;;;;;;24.27;5.80;;;;;;;;;;5020185;28;20120;-75
2024/01/12 10:02:02;;;;;;;26.38;5.70;;;;;;;;;;5024611;28;20029;-77
2024/01/12 10:04:28;;;;;;;23.83;5.18;;;;;;;;;;5027305;28;20038;-77
2024/01/12 10:06:54;;;;;;;28.77;6.93;;;;;;;;;;5029598;28;20506;-76
2024/01/12 10:09:24;;;;;;;23.52;4.72;;;;;;;;;;5026164;28;20052;-77
2024/01/12 10:11:53;;;;;;;20.17;5.03;;;;;;;;;;5024817;28;20034;-77
2024/01/12 10:14:20;;;;;;;19.25;5.18;;;;;;;;;;5028231;28;20550;-77
2024/01/12 10:16:56;;;;;;;25.35;4.10;;;;;;;;;;5028057;28;20037;-77
2024/01/12 10:19:23;;;;;;;26.02;4.07;;;;;;;;;;5029318;28;20033;-77
2024/01/12 10:21:49;;;;;;;15.00;3.50;;;;;;;;;;5027654;28;20034;-76
2024/01/12 10:24:20;;;;;;;23.42;4.10;;;;;;;;;;5017313;28;20104;-76
2024/01/12 10:26:47;;;;;;;18.10;4.57;;;;;;;;;;5028966;28;20483;-76
2024/01/12 10:29:16;;;;;;;20.52;3.80;;;;;;;;;;5016674;28;20036;-76
2024/01/12 10:31:43;;;;;;;30.73;3.75;;;;;;;;;;5022068;28;20376;-76
2024/01/12 10:34:15;;;;;;;16.23;3.10;;;;;;;;;;5026098;28;20371;-76
2024/01/12 10:36:41;;;;;;;10.13;2.38;;;;;;;;;;5014622;28;20075;-76
2024/01/12 10:39:09;;;;;;;24.52;3.72;;;;;;;;;;5029165;28;20067;-76
2024/01/12 10:41:35;;;;;;;19.25;3.17;;;;;;;;;;5022920;28;20033;-76
2024/01/12 10:44:04;;;;;;;27.60;4.05;;;;;;;;;;5040362;28;20102;-77
2024/01/12 10:46:37;;;;;;;23.55;4.00;;;;;;;;;;5010317;28;20527;-77
2024/01/12 10:49:20;;;;;;;22.30;3.60;;;;;;;;;;5017853;28;20048;-76
2024/01/12 10:52:05;;;;;;;18.38;3.03;;;;;;;;;;5029754;28;20076;-76
2024/01/12 10:54:38;;;;;;;24.15;3.42;;;;;;;;;;5026232;28;20029;-76
2024/01/12 10:57:05;;;;;;;20.38;3.55;;;;;;;;;;5018978;28;20233;-75
2024/01/12 10:59:31;;;;;;;15.35;4.03;;;;;;;;;;5044172;28;20072;-76
2024/01/12 11:01:57;;;;;;;15.98;2.78;;;;;;;;;;5027126;28;20037;-76
2024/01/12 11:04:24;;;;;;;19.05;3.35;;;;;;;;;;5027464;28;20017;-76
2024/01/12 11:06:55;;;;;;;21.02;2.45;;;;;;;;;;5028024;28;20079;-76
2024/01/12 11:09:21;;;;;;;12.15;2.25;;;;;;;;;;5027575;28;20052;-76
2024/01/12 11:11:50;;;;;;;20.40;4.25;;;;;;;;;;5031520;28;20029;-76
2024/01/12 11:14:16;;;;;;;14.98;2.55;;;;;;;;;;5022411;28;20030;-75
2024/01/12 11:16:42;;;;;;;12.55;2.45;;;;;;;;;;5025389;28;20337;-77
2024/01/12 11:19:12;;;;;;;22.05;4.30;;;;;;;;;;5023728;28;20036;-76
2024/01/12 11:21:40;;;;;;;13.10;1.60;;;;;;;;;;5031400;28;21399;-76
2024/01/12 11:24:07;;;;;;;12.50;1.70;;;;;;;;;;5024219;28;20033;-76
2024/01/12 11:26:33;;;;;;;16.33;2.50;;;;;;;;;;5027735;28;20029;-75
2024/01/12 11:28:59;;;;;;;14.70;2.45;;;;;;;;;;5018111;28;20026;-74
2024/01/12 11:31:29;;;;;;;20.55;4.00;;;;;;;;;;5013079;28;20033;-75
2024/01/12 11:34:00;;;;;;;13.93;2.72;;;;;;;;;;5018660;28;20239;-75
2024/01/12 11:36:27;;;;;;;16.73;2.40;;;;;;;;;;5044140;28;20030;-76
2024/01/12 11:38:55;;;;;;;18.48;2.80;;;;;;;;;;5026284;28;20040;-76
2024/01/12 11:41:26;;;;;;;20.65;2.83;;;;;;;;;;5027237;28;20482;-75
2024/01/12 11:43:52;;;;;;;;;;;;;;;;;;5028334;28;20438;-75
2024/01/12 11:46:18;;;;;;;22.88;3.10;;;;;;;;;;5027517;28;19920;-75
2024/01/12 11:48:47;;;;;;;16.90;3.22;;;;;;;;;;5026899;28;20469;-76
2024/01/12 11:51:20;;;;;;;19.92;4.15;;;;;;;;;;5026973;28;20083;-76
2024/01/12 11:53:49;;;;;;;14.82;2.72;;;;;;;;;;5023901;28;20037;-76
2024/01/12 11:56:15;;;;;;;18.27;2.60;;;;;;;;;;5029497;28;20037;-76
2024/01/12 11:58:41;;;;;;;17.58;2.80;;;;;;;;;;5012197;28;20041;-77
2024/01/12 12:01:07;;;;;;;14.90;2.42;;;;;;;;;;5029758;28;20175;-76
2024/01/12 12:03:34;;;;;;;12.95;2.42;;;;;;;;;;5028725;28;20022;-76
2024/01/12 12:06:00;;;;;;;19.60;3.47;;;;;;;;;;5031423;28;20034;-77
2024/01/12 12:08:27;;;;;;;9.45;2.03;;;;;;;;;;5031119;28;20032;-76
2024/01/12 12:10:53;;;;;;;14.43;2.33;;;;;;;;;;5031762;28;20192;-75
2024/01/12 12:13:20;;;;;;;14.27;2.63;;;;;;;;;;5031469;28;20038;-76
2024/01/12 12:15:46;;;;;;;9.40;1.80;;;;;;;;;;5031881;28;20044;-77
2024/01/12 12:18:13;;;;;;;8.80;1.83;;;;;;;;;;5031578;28;20044;-76
2024/01/12 12:20:41;;;;;;;6.68;1.35;;;;;;;;;;5032956;28;20022;-75
2024/01/12 12:23:07;;;;;;;12.48;1.70;;;;;;;;;;5033124;28;20041;-75
2024/01/12 12:25:33;;;;;;;4.40;1.55;;;;;;;;;;5032745;28;20048;-76
2024/01/12 12:28:00;;;;;;;10.35;2.47;;;;;;;;;;5013452;28;20637;-76
2024/01/12 12:30:28;;;;;;;8.77;1.95;;;;;;;;;;5031595;28;20525;-77
2024/01/12 12:32:58;;;;;;;13.77;2.00;;;;;;;;;;5031433;28;20558;-78
2024/01/12 12:35:24;;;;;;;14.50;1.90;;;;;;;;;;5031352;28;20039;-75
2024/01/12 12:37:51;;;;;;;10.68;1.70;;;;;;;;;;5031388;28;20028;-76
2024/01/12 12:40:18;;;;;;;18.00;2.00;;;;;;;;;;5031449;28;20418;-76
2024/01/12 12:42:48;;;;;;;10.43;1.38;;;;;;;;;;5030643;28;20031;-77
2024/01/12 12:45:15;;;;;;;15.50;2.73;;;;;;;;;;5030858;28;20021;-77
2024/01/12 12:47:41;;;;;;;9.65;1.60;;;;;;;;;;5031530;28;20065;-77
2024/01/12 12:50:12;;;;;;;10.45;3.00;;;;;;;;;;5031717;28;20025;-77
2024/01/12 12:52:38;;;;;;;13.83;2.70;;;;;;;;;;5030711;28;20108;-77
2024/01/12 12:55:05;;;;;;;10.98;2.08;;;;;;;;;;5030443;28;20276;-77
2024/01/12 12:57:31;;;;;;;12.50;2.83;;;;;;;;;;5037175;28;20124;-77
2024/01/12 12:59:58;;;;;;;14.30;3.20;;;;;;;;;;5037975;28;20033;-75
2024/01/12 13:02:24;;;;;;;10.90;2.72;;;;;;;;;;5031294;28;20037;-76
2024/01/12 13:04:52;;;;;;;8.50;2.13;;;;;;;;;;5051063;28;20100;-75
2024/01/12 13:07:18;;;;;;;11.85;2.20;;;;;;;;;;5034771;28;20462;-76
2024/01/12 13:09:44;;;;;;;11.48;2.97;;;;;;;;;;5032496;28;20030;-76
2024/01/12 13:12:11;;;;;;;13.73;2.85;;;;;;;;;;5027209;28;20038;-76
2024/01/12 13:14:37;;;;;;;17.30;3.75;;;;;;;;;;5032190;28;20029;-78
2024/01/12 13:17:03;;;;;;;11.95;2.90;;;;;;;;;;5028806;28;20444;-77
2024/01/12 13:19:29;;;;;;;13.70;3.22;;;;;;;;;;5031928;28;20042;-77
2024/01/12 13:21:55;;;;;;;12.02;2.83;;;;;;;;;;5031955;28;20442;-77
2024/01/12 13:24:25;;;;;;;12.50;3.95;;;;;;;;;;5031845;28;20041;-77
2024/01/12 13:26:51;;;;;;;15.60;2.58;;;;;;;;;;5031822;28;20036;-76
2024/01/12 13:29:17;;;;;;;14.13;2.42;;;;;;;;;;5031484;28;20041;-77
2024/01/12 13:31:43;;;;;;;13.40;2.03;;;;;;;;;;5031829;28;20030;-77
2024/01/12 13:34:10;;;;;;;8.93;1.92;;;;;;;;;;5031625;28;20045;-76
2024/01/12 13:36:36;;;;;;;17.00;2.83;;;;;;;;;;5030782;28;20033;-76
2024/01/12 13:39:03;;;;;;;13.98;3.10;;;;;;;;;;5031222;28;20176;-77
2024/01/12 13:41:30;;;;;;;14.10;2.40;;;;;;;;;;5031097;28;20080;-76
2024/01/12 13:43:56;;;;;;;11.10;2.45;;;;;;;;;;5030765;28;20036;-77
2024/01/12 13:46:25;;;;;;;16.98;3.72;;;;;;;;;;5014566;28;20038;-76
2024/01/12 13:48:52;;;;;;;15.70;3.03;;;;;;;;;;5023958;28;20045;-77
2024/01/12 13:51:18;;;;;;;15.02;2.40;;;;;;;;;;5042266;28;20034;-76
2024/01/12 13:53:45;;;;;;;12.30;2.33;;;;;;;;;;5029363;28;20055;-77
2024/01/12 13:56:12;;;;;;;12.52;3.17;;;;;;;;;;5034134;28;20111;-77
2024/01/12 13:58:38;;;;;;;13.15;2.30;;;;;;;;;;5021559;28;20127;-77
2024/01/12 14:01:04;;;;;;;13.73;2.83;;;;;;;;;;5016139;28;20061;-76
2024/01/12 14:03:32;;;;;;;15.23;2.88;;;;;;;;;;5010809;28;20434;-76
2024/01/12 14:05:58;;;;;;;13.30;2.95;;;;;;;;;;5034863;28;20025;-77
2024/01/12 14:08:24;;;;;;;11.48;3.28;;;;;;;;;;5023705;28;20037;-76
2024/01/12 14:10:53;;;;;;;18.42;4.32;;;;;;;;;;5028965;28;20033;-76
2024/01/12 14:13:20;;;;;;;11.93;3.05;;;;;;;;;;5051929;28;20150;-76
2024/01/12 14:15:46;;;;;;;16.60;4.85;;;;;;;;;;5063294;28;20037;-77
2024/01/12 14:18:12;;;;;;;23.60;4.75;;;;;;;;;;5011978;28;20029;-76
2024/01/12 14:20:39;;;;;;;12.68;3.35;;;;;;;;;;5020741;28;20106;-76
2024/01/12 14:23:05;;;;;;;9.45;3.40;;;;;;;;;;5032654;28;20063;-76
2024/01/12 14:25:32;;;;;;;12.30;3.45;;;;;;;;;;5039978;28;20044;-77